Aérodrome :
LOGIN :

S'inscrire | Disclaimer

   EN    FR    IT 

 










Légende :    VFR   VFR Marginal   IFR   IFR Intensif   IFR Très Intensif
Visi : 
Plafond : 
>= 8 km
>= 3000ft
5 à 8 km
1000 à 3000 ft
1500m à 5 km
500 à 1000 ft
800 à 1500m
200 à 500 ft
< 800m
< 200 ft
Symboles :   Orages  Brouillard  Fortes neiges  Fortes précipitations  Vent > 20 kt
SIGMETs :   Divers  Orages  Givrage  Turbulence  Onde Orograph.  Cendres Volcan.







- Altitude de l'aérodrome : 600 ft
- Code IATA : VIE


LOWW - Vienna Schwechat

DERNIER METAR :
  • 240420Z 25003KT CAVOK 04/02 Q1023 NOSIG

METARs EXPIRÉS :
  • 240350Z VRB01KT CAVOK 05/03 Q1024 NOSIG
  • 240320Z VRB01KT CAVOK 04/02 Q1023 NOSIG
  • 240250Z 17004KT CAVOK 04/02 Q1023 NOSIG
  • 240220Z 17004KT CAVOK 05/04 Q1024 NOSIG
  • 240150Z 17004KT CAVOK 05/03 Q1024 NOSIG

TAF TAF LOWW
Valide du 24 à 03h jusqu'au 25 à 09h UTC


240215Z 2403/2509 VRB02KT CAVOK TX18/2415Z TN05/2404Z
BECMG 2403/2405 30004KT 9999 FEW020
TEMPO 2410/2418 36010KT SCT050
BECMG 2421/2423 34008KT FEW030 SCT060
TEMPO 2500/2507 -SHRA BKN030
Pas de NOTAMs connus pour ce terrain.



MET'MAP, la Météo Aéronautique d'un coup d'oeil ! - Copyright ORBIFLY Décembre 2007 - Disclaimer

ORBIFLY MET'MAP TEAM :

Programmation & Développement : Alexandra Zaïnal
Conception & Développement : Baudouin d'Aumeries
Co-Programmation & Développement : Marc-Olivier Méhu
Soutien technique & logistique : Manuel Goepfert

Contact : metmap@orbifly.com




SOURCES & CREDITS :

   NOAA